createdAt,value
2019-06-15T00:00:53.012Z,4.93
2019-06-15T00:03:24.836Z,4.63
2019-06-15T00:05:56.546Z,4.70
2019-06-15T00:08:28.240Z,4.60
2019-06-15T00:10:59.927Z,4.20
2019-06-15T00:13:31.673Z,4.73
2019-06-15T00:16:03.502Z,4.47
2019-06-15T00:18:35.207Z,4.00
2019-06-15T00:21:07.017Z,4.60
2019-06-15T00:23:38.748Z,4.27
2019-06-15T00:26:10.461Z,4.67
2019-06-15T00:28:42.241Z,5.07
2019-06-15T00:31:13.946Z,5.00
2019-06-15T00:33:45.647Z,4.83
2019-06-15T00:36:17.320Z,5.67
2019-06-15T00:38:48.982Z,5.93
2019-06-15T00:41:20.720Z,5.60
2019-06-15T00:43:52.408Z,5.10
2019-06-15T00:46:24.368Z,5.20
2019-06-15T00:48:56.105Z,4.83
2019-06-15T00:51:27.974Z,4.93
2019-06-15T00:53:59.676Z,4.87
2019-06-15T00:56:31.387Z,4.97
2019-06-15T00:59:03.354Z,4.63
2019-06-15T01:01:35.569Z,5.03
2019-06-15T01:04:07.281Z,5.30
2019-06-15T01:06:39.028Z,5.03
2019-06-15T01:09:10.733Z,5.03
2019-06-15T01:11:42.455Z,3.93
2019-06-15T01:14:14.172Z,4.13
2019-06-15T01:16:45.893Z,3.67
2019-06-15T01:19:18.705Z,3.53
2019-06-15T01:21:50.422Z,2.93
2019-06-15T01:24:22.171Z,3.33
2019-06-15T01:26:53.908Z,3.37
2019-06-15T01:29:25.702Z,3.60
2019-06-15T01:31:57.429Z,3.00
2019-06-15T01:34:29.086Z,3.20
2019-06-15T01:37:00.791Z,3.70
2019-06-15T01:39:32.560Z,3.10
2019-06-15T01:42:04.236Z,3.20
2019-06-15T01:44:35.898Z,2.93
2019-06-15T01:47:09.089Z,2.90
2019-06-15T01:49:41.946Z,3.60
2019-06-15T01:52:13.669Z,3.30
2019-06-15T01:54:45.404Z,3.30
2019-06-15T01:57:17.084Z,3.53
2019-06-15T01:59:48.871Z,3.17
2019-06-15T02:02:20.585Z,3.23
2019-06-15T02:04:52.450Z,3.23
2019-06-15T02:07:26.687Z,3.00
2019-06-15T02:09:58.529Z,2.80
2019-06-15T02:12:30.326Z,3.13
2019-06-15T02:15:02.097Z,3.13
2019-06-15T02:17:33.799Z,2.97
2019-06-15T02:20:06.397Z,3.10
2019-06-15T02:22:38.112Z,3.30
2019-06-15T02:25:10.802Z,2.67
2019-06-15T02:27:42.528Z,3.10
2019-06-15T02:30:14.683Z,3.77
2019-06-15T02:32:46.431Z,3.00
2019-06-15T02:35:18.726Z,3.10
2019-06-15T02:37:50.477Z,2.83
2019-06-15T02:40:22.759Z,3.10
2019-06-15T02:42:54.622Z,3.40
2019-06-15T02:45:26.379Z,3.20
2019-06-15T02:48:01.102Z,2.87
2019-06-15T02:50:33.863Z,3.40
2019-06-15T02:53:05.607Z,3.20
2019-06-15T02:55:49.825Z,3.63
2019-06-15T02:58:10.687Z,3.23
2019-06-15T03:01:00.196Z,3.73
2019-06-15T03:03:31.862Z,3.57
2019-06-15T03:06:04.068Z,3.63
2019-06-15T03:08:36.961Z,4.40
2019-06-15T03:11:08.669Z,4.50
2019-06-15T03:13:40.375Z,3.60
2019-06-15T03:16:12.070Z,3.77
2019-06-15T03:18:43.747Z,3.97
2019-06-15T03:21:15.414Z,3.50
2019-06-15T03:23:47.065Z,3.97
2019-06-15T03:26:20.147Z,3.43
2019-06-15T03:28:51.909Z,3.37
2019-06-15T03:31:23.595Z,4.33
2019-06-15T03:33:55.338Z,4.30
2019-06-15T03:36:26.992Z,4.03
2019-06-15T03:38:58.688Z,4.47
2019-06-15T03:41:30.327Z,4.20
2019-06-15T03:44:01.994Z,4.93
2019-06-15T03:46:33.649Z,4.70
2019-06-15T03:49:05.330Z,4.80
2019-06-15T03:51:36.994Z,5.00
2019-06-15T03:54:08.683Z,4.33
2019-06-15T03:56:40.356Z,4.80
2019-06-15T03:59:12.068Z,5.37
2019-06-15T04:01:49.948Z,5.53
2019-06-15T04:04:21.739Z,6.20
2019-06-15T04:06:53.445Z,4.70
2019-06-15T04:09:25.137Z,6.13
2019-06-15T04:11:56.841Z,6.37
2019-06-15T04:14:28.496Z,5.73
2019-06-15T04:17:00.185Z,6.20
2019-06-15T04:19:31.878Z,6.37
2019-06-15T04:22:03.533Z,6.17
2019-06-15T04:24:35.258Z,5.47
2019-06-15T04:27:06.973Z,5.23
2019-06-15T04:29:38.741Z,5.63
2019-06-15T04:32:10.442Z,5.70
2019-06-15T04:34:42.089Z,6.13
2019-06-15T04:37:14.000Z,8.53
2019-06-15T04:39:45.681Z,8.37
2019-06-15T04:42:17.521Z,8.83
2019-06-15T04:44:49.219Z,9.07
2019-06-15T04:47:20.891Z,10.17
2019-06-15T04:49:52.601Z,9.40
2019-06-15T04:52:24.327Z,10.00
2019-06-15T04:54:56.037Z,8.70
2019-06-15T04:57:27.802Z,9.30
2019-06-15T04:59:59.502Z,9.40
2019-06-15T05:02:32.475Z,10.20
2019-06-15T05:05:04.744Z,10.67
2019-06-15T05:07:40.018Z,11.67
2019-06-15T05:10:12.614Z,11.00
2019-06-15T05:12:45.919Z,11.03
2019-06-15T05:15:17.845Z,10.67
2019-06-15T05:17:49.549Z,10.20
2019-06-15T05:20:21.228Z,10.80
2019-06-15T05:22:52.965Z,12.63
2019-06-15T05:25:24.648Z,11.83
2019-06-15T05:27:56.367Z,12.90
2019-06-15T05:30:28.120Z,13.33
2019-06-15T05:32:59.797Z,12.97
2019-06-15T05:35:31.546Z,12.97
2019-06-15T05:38:04.501Z,12.37
2019-06-15T05:40:36.176Z,12.17
2019-06-15T05:43:07.871Z,12.47
2019-06-15T05:45:39.590Z,12.07
2019-06-15T05:48:11.345Z,13.00
2019-06-15T05:50:43.296Z,12.77
2019-06-15T05:53:16.527Z,12.00
2019-06-15T05:55:48.349Z,11.70
2019-06-15T05:58:20.014Z,11.40
2019-06-15T06:00:51.737Z,10.53
2019-06-15T06:03:23.530Z,11.90
2019-06-15T06:05:55.234Z,11.53
2019-06-15T06:08:26.979Z,10.60
2019-06-15T06:10:58.706Z,10.53
2019-06-15T06:13:30.392Z,11.47
2019-06-15T06:16:02.304Z,11.20
2019-06-15T06:18:34.029Z,10.10
2019-06-15T06:21:06.974Z,10.07
2019-06-15T06:23:39.023Z,9.83
2019-06-15T06:26:12.247Z,9.87
2019-06-15T06:28:56.503Z,9.87
2019-06-15T06:31:17.430Z,9.57
2019-06-15T06:33:49.230Z,9.90
2019-06-15T06:36:20.982Z,9.27
2019-06-15T06:38:52.664Z,9.37
2019-06-15T06:41:24.387Z,10.03
2019-06-15T06:43:56.136Z,9.10
2019-06-15T06:46:27.817Z,8.53
2019-06-15T06:48:59.520Z,9.30
2019-06-15T06:51:31.276Z,9.27
2019-06-15T06:54:03.081Z,8.40
2019-06-15T06:56:34.786Z,8.53
2019-06-15T06:59:06.574Z,8.27
2019-06-15T07:01:38.252Z,8.53
2019-06-15T07:04:10.324Z,7.80
2019-06-15T07:06:42.156Z,7.30
2019-06-15T07:09:13.936Z,7.37
2019-06-15T07:11:45.829Z,6.97
2019-06-15T07:14:17.558Z,7.97
2019-06-15T07:16:49.272Z,7.80
2019-06-15T07:19:21.076Z,7.47
2019-06-15T07:21:52.876Z,7.70
2019-06-15T07:24:25.692Z,7.70
2019-06-15T07:26:57.442Z,7.40
2019-06-15T07:29:29.104Z,7.47
2019-06-15T07:32:00.830Z,7.50
2019-06-15T07:34:32.636Z,7.10
2019-06-15T07:37:05.493Z,6.90
2019-06-15T07:39:37.309Z,7.60
2019-06-15T07:42:09.063Z,7.50
2019-06-15T07:44:41.999Z,6.43
2019-06-15T07:47:13.827Z,6.67
2019-06-15T07:49:45.623Z,6.37
2019-06-15T07:52:17.377Z,6.23
2019-06-15T07:54:49.119Z,6.27
2019-06-15T07:57:20.827Z,5.53
2019-06-15T07:59:52.544Z,4.50
2019-06-15T08:02:26.589Z,4.80
2019-06-15T08:04:58.389Z,4.83
2019-06-15T08:07:30.238Z,4.63
2019-06-15T08:10:03.042Z,5.27
2019-06-15T08:12:34.886Z,5.73
2019-06-15T08:15:08.297Z,6.43
2019-06-15T08:17:40.069Z,7.07
2019-06-15T08:20:13.933Z,7.40
2019-06-15T08:22:46.936Z,6.57
2019-06-15T08:25:19.877Z,7.33
2019-06-15T08:27:51.664Z,6.43
2019-06-15T08:30:33.819Z,6.83
2019-06-15T08:33:06.808Z,6.33
2019-06-15T08:35:40.313Z,6.13
2019-06-15T08:38:12.188Z,6.00
2019-06-15T08:40:43.925Z,6.10
2019-06-15T08:43:15.749Z,5.63
2019-06-15T08:45:47.467Z,6.20
2019-06-15T08:48:22.563Z,5.90
2019-06-15T08:50:55.774Z,5.93
2019-06-15T08:53:27.518Z,5.50
2019-06-15T08:55:59.541Z,5.87
2019-06-15T08:58:32.817Z,4.83
2019-06-15T09:01:06.335Z,3.70
2019-06-15T09:03:43.758Z,3.03
2019-06-15T09:06:18.495Z,2.67
2019-06-15T09:08:50.269Z,2.80
2019-06-15T09:11:22.203Z,2.30
2019-06-15T09:13:54.102Z,2.40
2019-06-15T09:16:27.038Z,2.53
2019-06-15T09:19:02.222Z,2.40
2019-06-15T09:25:42.876Z,2.33
2019-06-15T09:28:20.041Z,2.37
2019-06-15T09:30:53.264Z,2.27
2019-06-15T09:33:27.028Z,2.10
2019-06-15T09:35:58.724Z,2.07
2019-06-15T09:38:31.827Z,2.37
2019-06-15T09:41:05.441Z,2.63
2019-06-15T09:43:37.173Z,3.57
2019-06-15T09:46:10.496Z,3.50
2019-06-15T09:48:46.495Z,3.50
2019-06-15T09:51:20.069Z,4.33
2019-06-15T09:53:53.851Z,4.70
2019-06-15T09:56:25.548Z,5.53
2019-06-15T09:58:57.389Z,8.10
2019-06-15T10:01:30.648Z,6.87
2019-06-15T10:04:02.954Z,7.00
2019-06-15T10:06:38.007Z,8.17
2019-06-15T10:09:16.394Z,7.97
2019-06-15T10:11:50.255Z,7.63
2019-06-15T10:14:25.752Z,7.93
2019-06-15T10:17:02.365Z,7.93
2019-06-15T10:19:34.610Z,6.77
2019-06-15T10:22:06.707Z,7.23
2019-06-15T10:24:40.743Z,6.20
2019-06-15T10:27:12.712Z,6.17
2019-06-15T10:29:44.754Z,5.53
2019-06-15T10:45:02.187Z,3.22
2019-06-15T10:47:34.634Z,3.40
2019-06-15T10:54:25.793Z,2.98
2019-06-15T10:56:58.992Z,2.17
2019-06-15T10:59:31.679Z,2.20
2019-06-15T11:02:08.870Z,1.77
2019-06-15T11:04:41.648Z,1.80
2019-06-15T11:07:15.775Z,1.62
2019-06-15T11:09:50.002Z,1.50
2019-06-15T11:12:27.651Z,1.60
2019-06-15T11:15:02.009Z,1.50
2019-06-15T11:17:36.036Z,1.70
2019-06-15T11:20:10.454Z,1.70
2019-06-15T11:22:44.290Z,1.30
2019-06-15T11:25:16.786Z,1.42
2019-06-15T11:27:53.553Z,0.95
2019-06-15T11:30:26.270Z,1.10
2019-06-15T11:33:01.557Z,1.30
2019-06-15T11:35:36.860Z,1.10
2019-06-15T11:38:12.787Z,1.20
2019-06-15T11:40:45.515Z,1.12
2019-06-15T11:43:18.332Z,0.98
2019-06-15T11:45:52.466Z,0.98
2019-06-15T11:48:25.259Z,1.00
2019-06-15T11:51:01.181Z,1.10
2019-06-15T11:53:33.670Z,1.22
2019-06-15T11:56:06.744Z,1.00
2019-06-15T11:58:40.125Z,1.12
2019-06-15T12:01:13.897Z,1.05
2019-06-15T12:03:47.551Z,0.95
2019-06-15T12:06:20.120Z,1.62
2019-06-15T12:08:52.490Z,1.30
2019-06-15T12:11:25.836Z,1.00
2019-06-15T12:13:58.267Z,1.40
2019-06-15T12:16:30.867Z,1.15
2019-06-15T12:19:04.916Z,1.10
2019-06-15T12:21:37.236Z,1.30
2019-06-15T12:24:09.650Z,1.00
2019-06-15T12:26:43.143Z,1.25
2019-06-15T12:29:15.474Z,1.15
2019-06-15T12:31:47.877Z,1.40
2019-06-15T12:34:21.179Z,1.20
2019-06-15T12:36:54.257Z,1.20
2019-06-15T12:39:29.703Z,1.40
2019-06-15T12:42:03.667Z,1.42
2019-06-15T12:44:37.757Z,1.57
2019-06-15T12:47:10.563Z,1.40
2019-06-15T12:49:44.865Z,1.27
2019-06-15T12:52:18.960Z,1.30
2019-06-15T12:54:52.647Z,1.30
2019-06-15T12:57:26.280Z,1.37
2019-06-15T12:59:59.325Z,1.40
2019-06-15T13:02:32.336Z,1.30
2019-06-15T13:05:07.860Z,1.80
2019-06-15T13:07:41.551Z,1.98
2019-06-15T13:10:18.668Z,2.10
2019-06-15T13:12:53.336Z,2.45
2019-06-15T13:15:28.727Z,2.15
2019-06-15T13:18:02.713Z,1.80
2019-06-15T13:20:37.706Z,1.75
2019-06-15T13:23:09.998Z,2.17
2019-06-15T13:25:47.409Z,2.20
2019-06-15T13:28:19.874Z,1.75
2019-06-15T13:30:55.570Z,1.82
2019-06-15T13:33:28.544Z,1.70
2019-06-15T13:36:02.858Z,2.05
2019-06-15T13:38:35.502Z,1.42
2019-06-15T13:41:09.113Z,1.55
2019-06-15T13:43:46.720Z,1.72
2019-06-15T13:46:22.622Z,1.62
2019-06-15T13:48:54.574Z,1.67
2019-06-15T13:51:27.995Z,1.83
2019-06-15T13:54:01.622Z,1.85
2019-06-15T13:56:35.644Z,1.72
2019-06-15T13:59:09.030Z,1.87
2019-06-15T14:01:44.186Z,1.62
2019-06-15T14:04:18.336Z,2.33
2019-06-15T14:06:53.204Z,2.22
2019-06-15T14:09:26.787Z,1.80
2019-06-15T14:12:00.114Z,1.95
2019-06-15T14:14:34.125Z,1.97
2019-06-15T14:17:07.075Z,1.95
2019-06-15T14:19:41.438Z,2.12
2019-06-15T14:22:14.147Z,2.20
2019-06-15T14:24:47.546Z,1.87
2019-06-15T14:27:20.254Z,1.80
2019-06-15T14:29:53.978Z,1.82
2019-06-15T14:32:27.497Z,1.72
2019-06-15T14:35:00.661Z,1.67
2019-06-15T14:37:33.331Z,2.10
2019-06-15T14:40:05.876Z,2.00
2019-06-15T14:42:37.733Z,2.07
2019-06-15T14:45:10.537Z,2.12
2019-06-15T14:47:43.932Z,1.98
2019-06-15T14:50:16.421Z,2.20
2019-06-15T14:52:48.122Z,2.20
2019-06-15T14:55:20.112Z,2.22
2019-06-15T14:57:51.890Z,2.02
2019-06-15T15:00:27.441Z,2.55
2019-06-15T15:03:01.591Z,3.00
2019-06-15T15:05:36.358Z,3.70
2019-06-15T15:08:07.310Z,3.20
2019-06-15T15:10:39.035Z,3.15
2019-06-15T15:13:12.817Z,3.65
2019-06-15T15:15:46.799Z,4.85
2019-06-15T15:18:21.063Z,4.47
2019-06-15T15:20:52.765Z,3.85
2019-06-15T15:23:25.741Z,3.00
2019-06-15T15:26:00.145Z,2.80
2019-06-15T15:28:36.364Z,2.90
2019-06-15T15:31:08.041Z,2.50
2019-06-15T15:33:40.552Z,3.20
2019-06-15T15:36:12.875Z,2.75
2019-06-15T15:38:47.453Z,2.60
2019-06-15T15:41:19.745Z,2.10
2019-06-15T15:43:53.591Z,2.15
2019-06-15T15:46:25.987Z,2.35
2019-06-15T15:48:58.278Z,2.15
2019-06-15T15:51:30.831Z,2.30
2019-06-15T15:54:07.175Z,2.17
2019-06-15T15:56:41.591Z,2.25
2019-06-15T15:59:16.126Z,2.42
2019-06-15T16:01:48.012Z,2.00
2019-06-15T16:04:20.360Z,2.30
2019-06-15T16:06:52.744Z,1.87
2019-06-15T16:09:27.234Z,2.20
2019-06-15T16:12:00.613Z,2.45
2019-06-15T16:14:32.884Z,2.27
2019-06-15T16:17:06.698Z,2.58
2019-06-15T16:19:38.431Z,2.47
2019-06-15T16:22:10.190Z,2.62
2019-06-15T16:24:42.008Z,2.50
2019-06-15T16:27:15.797Z,2.45
2019-06-15T16:29:47.189Z,2.37
2019-06-15T16:32:19.491Z,2.35
2019-06-15T16:34:51.764Z,2.70
2019-06-15T16:37:26.006Z,2.35
2019-06-15T16:39:59.049Z,2.20
2019-06-15T16:42:31.313Z,2.60
2019-06-15T16:45:03.733Z,2.65
2019-06-15T16:47:36.343Z,2.60
2019-06-15T16:50:10.173Z,2.30
2019-06-15T16:52:42.015Z,2.43
2019-06-15T16:55:13.738Z,2.92
2019-06-15T16:57:46.609Z,2.95
2019-06-15T17:00:21.413Z,3.22
2019-06-15T17:02:53.300Z,2.35
2019-06-15T17:05:27.430Z,2.45
2019-06-15T17:07:59.100Z,2.92
2019-06-15T17:10:41.840Z,2.50
2019-06-15T17:13:16.058Z,2.33
2019-06-15T17:15:47.587Z,2.40
2019-06-15T17:18:20.715Z,2.50
2019-06-15T17:20:56.397Z,2.62
2019-06-15T17:23:28.313Z,2.55
2019-06-15T17:26:00.804Z,2.47
2019-06-15T17:28:32.797Z,2.60
2019-06-15T17:31:06.022Z,3.03
2019-06-15T17:33:38.557Z,2.50
2019-06-15T17:36:10.444Z,2.90
2019-06-15T17:38:42.231Z,2.50
2019-06-15T17:41:17.121Z,2.60
2019-06-15T17:43:47.603Z,2.25
2019-06-15T17:46:21.203Z,2.75
2019-06-15T17:48:53.237Z,2.40
2019-06-15T17:51:26.966Z,2.37
2019-06-15T17:53:59.325Z,2.50
2019-06-15T17:56:31.052Z,2.08
2019-06-15T17:59:06.752Z,2.90
2019-06-15T18:01:38.660Z,2.63
2019-06-15T18:04:10.431Z,2.47
2019-06-15T18:06:42.204Z,2.50
2019-06-15T18:09:14.088Z,2.25
2019-06-15T18:11:46.464Z,2.27
2019-06-15T18:14:19.009Z,2.50
2019-06-15T18:16:51.028Z,3.10
2019-06-15T18:19:22.735Z,3.50
2019-06-15T18:21:56.157Z,4.63
2019-06-15T18:24:27.958Z,2.53
2019-06-15T18:27:00.850Z,2.52
2019-06-15T18:29:32.841Z,2.60
2019-06-15T18:32:06.414Z,3.00
2019-06-15T18:34:40.451Z,2.70
2019-06-15T18:37:13.799Z,3.00
2019-06-15T18:39:46.790Z,2.63
2019-06-15T18:42:19.377Z,2.75
2019-06-15T18:44:51.105Z,2.70
2019-06-15T18:47:22.855Z,2.50
2019-06-15T18:49:56.175Z,2.67
2019-06-15T18:52:28.783Z,2.77
2019-06-15T18:55:00.539Z,2.80
2019-06-15T18:57:32.295Z,2.70
2019-06-15T19:00:07.209Z,2.30
2019-06-15T19:02:38.619Z,2.40
2019-06-15T19:05:10.900Z,2.33
2019-06-15T19:07:42.653Z,2.00
2019-06-15T19:10:19.655Z,2.10
2019-06-15T19:12:51.432Z,2.40
2019-06-15T19:15:23.191Z,2.33
2019-06-15T19:17:56.012Z,2.00
2019-06-15T19:20:28.225Z,2.40
2019-06-15T19:22:59.939Z,2.37
2019-06-15T19:25:31.887Z,2.13
2019-06-15T19:28:05.609Z,1.83
2019-06-15T19:30:39.090Z,2.63
2019-06-15T19:33:10.924Z,2.80
2019-06-15T19:35:42.753Z,2.30
2019-06-15T19:38:16.194Z,2.00
2019-06-15T19:40:48.077Z,2.17
2019-06-15T19:43:19.969Z,2.30
2019-06-15T19:45:51.680Z,2.23
2019-06-15T19:48:23.576Z,2.13
2019-06-15T19:50:56.839Z,2.17
2019-06-15T19:53:28.781Z,2.47
2019-06-15T19:56:00.565Z,2.70
2019-06-15T19:58:32.340Z,3.40
2019-06-15T20:01:06.518Z,4.30
2019-06-15T20:03:37.594Z,3.50
2019-06-15T20:06:11.040Z,4.47
2019-06-15T20:08:46.852Z,3.60
2019-06-15T20:11:18.090Z,3.33
2019-06-15T20:13:51.530Z,3.37
2019-06-15T20:16:23.783Z,2.83
2019-06-15T20:18:58.331Z,3.00
2019-06-15T20:21:30.473Z,3.20
2019-06-15T20:24:06.271Z,2.77
2019-06-15T20:26:41.412Z,2.80
2019-06-15T20:29:13.427Z,3.00
2019-06-15T20:31:46.294Z,2.33
2019-06-15T20:34:18.197Z,2.90
2019-06-15T20:36:51.394Z,2.77
2019-06-15T20:39:23.213Z,2.70
2019-06-15T20:41:56.456Z,2.67
2019-06-15T20:44:28.255Z,5.30
2019-06-15T20:47:01.801Z,4.17
2019-06-15T20:49:33.656Z,4.37
2019-06-15T20:52:07.156Z,4.27
2019-06-15T20:54:39.128Z,3.80
2019-06-15T20:57:10.902Z,3.70
2019-06-15T20:59:42.664Z,3.70
2019-06-15T21:02:16.102Z,3.67
2019-06-15T21:04:48.053Z,3.20
2019-06-15T21:07:19.962Z,3.97
2019-06-15T21:09:51.952Z,4.37
2019-06-15T21:12:23.954Z,4.20
2019-06-15T21:14:56.928Z,3.77
2019-06-15T21:17:28.743Z,3.63
2019-06-15T21:20:00.694Z,3.93
2019-06-15T21:22:34.083Z,3.47
2019-06-15T21:25:08.080Z,4.23
2019-06-15T21:27:39.936Z,4.10
2019-06-15T21:30:12.590Z,4.07
2019-06-15T21:32:46.544Z,3.93
2019-06-15T21:35:18.070Z,3.87
2019-06-15T21:37:50.902Z,3.70
2019-06-15T21:40:23.926Z,4.40
2019-06-15T21:42:56.253Z,4.57
2019-06-15T21:45:28.413Z,4.90
2019-06-15T21:48:00.372Z,4.83
2019-06-15T21:50:36.094Z,5.13
2019-06-15T21:53:08.428Z,4.60
2019-06-15T21:55:40.199Z,4.67
2019-06-15T21:58:11.994Z,5.27
2019-06-15T22:01:13.981Z,4.80
2019-06-15T22:03:46.475Z,5.00
2019-06-15T22:06:19.573Z,5.17
2019-06-15T22:08:51.282Z,4.47
2019-06-15T22:11:23.014Z,5.53
2019-06-15T22:13:57.118Z,5.37
2019-06-15T22:16:29.695Z,5.27
2019-06-15T22:19:01.510Z,5.33
2019-06-15T22:21:33.289Z,5.13
2019-06-15T22:24:07.092Z,5.50
2019-06-15T22:26:38.992Z,5.20
2019-06-15T22:29:10.815Z,5.93
2019-06-15T22:31:42.807Z,5.43
2019-06-15T22:34:16.253Z,5.13
2019-06-15T22:36:48.551Z,5.27
2019-06-15T22:39:21.923Z,5.47
2019-06-15T22:41:56.037Z,5.03
2019-06-15T22:44:27.871Z,11.17
2019-06-15T22:46:59.806Z,6.03
2019-06-15T22:49:31.618Z,6.33
2019-06-15T22:52:03.387Z,5.97
2019-06-15T22:54:37.518Z,6.10
2019-06-15T22:57:08.629Z,5.67
2019-06-15T22:59:40.587Z,5.43
2019-06-15T23:02:12.286Z,6.53
2019-06-15T23:04:47.118Z,6.80
2019-06-15T23:07:19.095Z,6.80
2019-06-15T23:09:52.060Z,6.67
2019-06-15T23:12:23.921Z,6.27
2019-06-15T23:14:57.016Z,6.80
2019-06-15T23:17:28.692Z,6.47
2019-06-15T23:20:00.545Z,6.07
2019-06-15T23:22:34.957Z,6.13
2019-06-15T23:25:07.461Z,5.70
2019-06-15T23:27:39.262Z,5.73
2019-06-15T23:30:12.787Z,4.83
2019-06-15T23:32:46.903Z,5.13
2019-06-15T23:35:20.349Z,5.20
2019-06-15T23:37:52.095Z,5.23
2019-06-15T23:40:26.906Z,5.03
2019-06-15T23:42:58.807Z,5.40
2019-06-15T23:45:30.568Z,5.03
2019-06-15T23:48:02.680Z,4.83
2019-06-15T23:50:36.790Z,5.00
2019-06-15T23:53:08.189Z,5.00
2019-06-15T23:55:39.955Z,4.77
2019-06-15T23:58:11.785Z,5.60
